Terminal Aerodrome Forecast
Issued by NWS Brownsville, TX

Home | Current Version | Previous Version | Text Only | Print | Product List | Glossary On
Versions: 1 2 3 4 5 6 7 8 9 10 11 12 13 14 15 16 17 18 19 20 21 22 23 24 25 26 27 28
849
FTUS44 KBRO 241201 AAA
TAFHRL
TAF AMD
KHRL 241201Z 2412/2512 14010KT 4SM BR SCT011 OVC018
     FM241500 14015G22KT P6SM BKN025
     FM241600 15015G25KT P6SM SCT025 BKN040
     FM250300 13013KT P6SM BKN025
      TEMPO 2509/2512 BKN015=

USA.gov is the U.S. government's official web portal to all federal, state and local government web resources and services.